NGTA/TRW METAR and TAF weather

Enter ICAO airport designator
Station Type Date Time Source
NGTA METAR 2022/12/05 14:00 UTC NOAA

NGTA 051400Z 10011KT 9999 FEW019 SCT040 BKN100 28/25 Q1006


Station Type Date Time Source
NGTA Decoded METAR 2022/12/05 14:00 UTC NOAA

Tarawa, Kiribati (NGTA) 01-21N 172-55E 4M
Dec 05, 2022 - 09:00 AM EST / 2022.12.05 1400 UTC
Wind: from the E (100 degrees) at 13 MPH (11 KT):0
Visibility: greater than 7 mile(s):0
Sky conditions: mostly cloudy
Temperature: 82 F (28 C)
Dew Point: 77 F (25 C)
Relative Humidity: 83%
Pressure (altimeter): 29.71 in. Hg (1006 hPa)
ob: NGTA 051400Z 10011KT 9999 FEW019 SCT040 BKN100 28/25 Q1006
cycle: 14

Station Type Date Time Source
NGTA TAF 2022/12/05 12:06 UTC NOAA

TAF NGTA 051104Z 0512/0612 09008KT 9999 FEW020 PROB30
TEMPO 0512/0612 5000 TSRA FEW018CB

Example: see airport list